Kezdőlap
METAR-TAF:

METAR-TAF

Repülőterek :

Vineyard Haven, Massachusetts, Amerikai Egyesült Államok

földrajzi szélesség: 41-23-32N, földrajzi hosszúság: 070-37-00W, magasság: 20 m

Jelenlegi meteorológiai megfigyelések

A jelentés 17 perccel ezelõtt készült, 07:39 UTC
Észak-északkeleti szél 4 kt
Hőmérséklet 13°C
Páratartalom 100%
Légköri nyomás 1022 hPa
Látótávolság: 0.4 km
köd

METAR: KMVY 260739Z AUTO 02004KT 1/4SM R24/1800V3000FT FG VV002 13/13 A3019 RMK AO2 T01280128

Idő: 03:56 (07:56 UTC)


TAF: hiányzik

Meteorológiai megfigyelések és előrejelzések több, mint 4000 repülőtéren (METAR és TAF jelentéseket).

A térképen piros és sárga pontok jelzik az elérhető meteorológiai állomásokat.

Mozgassa az egeret a pont fölött, hogy megjelenjen az állomás neve.

Azután kattintson az időjárási megfigyelések és előrejelzések megtekintéséhez.

A térkép megváltoztatása: kattintson a fekete keresztel jelölt zöld gombra ráközelítéshez, a vonallal jelölt zöld gombra távolításhoz, vagy a zöld nyilakra a szomszédos térképek eléréséhez.


METAR-TAF: